sensor_id;sensor_type;location;lat;lon;timestamp;pressure;altitude;pressure_sealevel;temperature;humidity
54910;BME280;63189;51.240;9.964;2023-05-23T00:01:05;97627.56;;;15.62;100.00
54910;BME280;63189;51.240;9.964;2023-05-23T00:03:33;97634.00;;;15.56;100.00
54910;BME280;63189;51.240;9.964;2023-05-23T00:06:00;97633.31;;;15.52;100.00
54910;BME280;63189;51.240;9.964;2023-05-23T00:08:25;97634.31;;;15.50;100.00
54910;BME280;63189;51.240;9.964;2023-05-23T00:10:51;97632.81;;;15.46;100.00
54910;BME280;63189;51.240;9.964;2023-05-23T00:13:16;97630.28;;;15.44;100.00
54910;BME280;63189;51.240;9.964;2023-05-23T00:15:41;97630.28;;;15.44;100.00
54910;BME280;63189;51.240;9.964;2023-05-23T00:18:08;97632.19;;;15.41;100.00
54910;BME280;63189;51.240;9.964;2023-05-23T00:20:35;97633.13;;;15.40;100.00
54910;BME280;63189;51.240;9.964;2023-05-23T00:23:01;97633.31;;;15.37;100.00
54910;BME280;63189;51.240;9.964;2023-05-23T00:25:28;97635.00;;;15.38;100.00
54910;BME280;63189;51.240;9.964;2023-05-23T00:27:58;97630.88;;;15.34;100.00
54910;BME280;63189;51.240;9.964;2023-05-23T00:30:24;97634.56;;;15.29;100.00
54910;BME280;63189;51.240;9.964;2023-05-23T00:32:50;97642.44;;;15.29;100.00
54910;BME280;63189;51.240;9.964;2023-05-23T00:35:19;97644.50;;;15.24;100.00
54910;BME280;63189;51.240;9.964;2023-05-23T00:37:44;97651.75;;;15.19;100.00
54910;BME280;63189;51.240;9.964;2023-05-23T00:40:10;97647.63;;;15.15;100.00
54910;BME280;63189;51.240;9.964;2023-05-23T00:42:35;97653.03;;;15.12;100.00
54910;BME280;63189;51.240;9.964;2023-05-23T00:45:01;97650.47;;;15.11;100.00
54910;BME280;63189;51.240;9.964;2023-05-23T00:47:27;97661.06;;;15.09;100.00
54910;BME280;63189;51.240;9.964;2023-05-23T00:49:52;97663.84;;;15.06;100.00
54910;BME280;63189;51.240;9.964;2023-05-23T00:52:17;97664.88;;;15.04;100.00
54910;BME280;63189;51.240;9.964;2023-05-23T00:54:43;97664.16;;;15.00;100.00
54910;BME280;63189;51.240;9.964;2023-05-23T00:57:08;97668.91;;;14.93;100.00
54910;BME280;63189;51.240;9.964;2023-05-23T00:59:34;97667.34;;;14.89;100.00
54910;BME280;63189;51.240;9.964;2023-05-23T01:02:01;97666.69;;;14.86;100.00
54910;BME280;63189;51.240;9.964;2023-05-23T01:04:27;97674.56;;;14.86;100.00
54910;BME280;63189;51.240;9.964;2023-05-23T01:06:54;97672.00;;;14.84;100.00
54910;BME280;63189;51.240;9.964;2023-05-23T01:09:20;97674.56;;;14.86;100.00
54910;BME280;63189;51.240;9.964;2023-05-23T01:14:34;97665.56;;;14.90;100.00
54910;BME280;63189;51.240;9.964;2023-05-23T01:17:09;97660.19;;;14.93;100.00
54910;BME280;63189;51.240;9.964;2023-05-23T01:19:45;97661.72;;;14.97;100.00
54910;BME280;63189;51.240;9.964;2023-05-23T01:22:48;97652.06;;;14.97;100.00
54910;BME280;63189;51.240;9.964;2023-05-23T01:25:38;97652.75;;;15.01;100.00
54910;BME280;63189;51.240;9.964;2023-05-23T01:28:13;97649.97;;;15.04;100.00
54910;BME280;63189;51.240;9.964;2023-05-23T01:30:40;97653.34;;;15.06;100.00
54910;BME280;63189;51.240;9.964;2023-05-23T01:33:09;97647.16;;;15.07;100.00
54910;BME280;63189;51.240;9.964;2023-05-23T01:35:36;97645.47;;;15.06;100.00
54910;BME280;63189;51.240;9.964;2023-05-23T01:38:02;97648.84;;;15.08;100.00
54910;BME280;63189;51.240;9.964;2023-05-23T01:40:28;97651.50;;;15.08;100.00
54910;BME280;63189;51.240;9.964;2023-05-23T01:42:54;97655.81;;;15.09;100.00
54910;BME280;63189;51.240;9.964;2023-05-23T01:45:24;97648.00;;;15.08;100.00
54910;BME280;63189;51.240;9.964;2023-05-23T01:47:51;97650.56;;;15.09;100.00
54910;BME280;63189;51.240;9.964;2023-05-23T01:50:17;97654.03;;;15.10;100.00
54910;BME280;63189;51.240;9.964;2023-05-23T01:52:43;97646.09;;;15.11;100.00
54910;BME280;63189;51.240;9.964;2023-05-23T01:55:10;97652.09;;;15.13;100.00
54910;BME280;63189;51.240;9.964;2023-05-23T01:57:38;97651.34;;;15.11;100.00
54910;BME280;63189;51.240;9.964;2023-05-23T02:00:05;97655.66;;;15.12;100.00
54910;BME280;63189;51.240;9.964;2023-05-23T02:02:33;97660.75;;;15.15;100.00
54910;BME280;63189;51.240;9.964;2023-05-23T02:04:59;97660.75;;;15.15;100.00
54910;BME280;63189;51.240;9.964;2023-05-23T02:07:24;97661.50;;;15.17;100.00
54910;BME280;63189;51.240;9.964;2023-05-23T02:09:50;97661.59;;;15.16;100.00
54910;BME280;63189;51.240;9.964;2023-05-23T02:12:15;97665.16;;;15.15;100.00
54910;BME280;63189;51.240;9.964;2023-05-23T02:14:40;97654.88;;;15.10;100.00
54910;BME280;63189;51.240;9.964;2023-05-23T02:17:07;97663.69;;;15.09;100.00
54910;BME280;63189;51.240;9.964;2023-05-23T02:19:35;97667.25;;;15.08;100.00
54910;BME280;63189;51.240;9.964;2023-05-23T02:22:00;97666.56;;;15.05;100.00
54910;BME280;63189;51.240;9.964;2023-05-23T02:24:26;97656.28;;;15.00;100.00
54910;BME280;63189;51.240;9.964;2023-05-23T02:26:51;97666.03;;;14.98;100.00
54910;BME280;63189;51.240;9.964;2023-05-23T02:29:17;97670.59;;;14.94;100.00
54910;BME280;63189;51.240;9.964;2023-05-23T02:31:42;97675.00;;;14.94;100.00
54910;BME280;63189;51.240;9.964;2023-05-23T02:34:08;97677.81;;;14.91;100.00
54910;BME280;63189;51.240;9.964;2023-05-23T02:36:33;97679.63;;;14.89;100.00
54910;BME280;63189;51.240;9.964;2023-05-23T02:38:58;97679.63;;;14.89;100.00
54910;BME280;63189;51.240;9.964;2023-05-23T02:41:23;97681.31;;;14.90;100.00
54910;BME280;63189;51.240;9.964;2023-05-23T02:43:49;97676.16;;;14.88;100.00
54910;BME280;63189;51.240;9.964;2023-05-23T02:46:15;97689.19;;;14.90;100.00
54910;BME280;63189;51.240;9.964;2023-05-23T02:48:40;97681.31;;;14.90;100.00
54910;BME280;63189;51.240;9.964;2023-05-23T02:51:05;97685.91;;;14.86;100.00
54910;BME280;63189;51.240;9.964;2023-05-23T02:53:30;97693.69;;;14.88;100.00
54910;BME280;63189;51.240;9.964;2023-05-23T02:55:56;97693.19;;;14.81;100.00
54910;BME280;63189;51.240;9.964;2023-05-23T02:58:21;97703.81;;;14.78;100.00
54910;BME280;63189;51.240;9.964;2023-05-23T03:00:47;97707.44;;;14.76;100.00
54910;BME280;63189;51.240;9.964;2023-05-23T03:03:12;97718.97;;;14.73;100.00
54910;BME280;63189;51.240;9.964;2023-05-23T03:05:37;97713.94;;;14.68;100.00
54910;BME280;63189;51.240;9.964;2023-05-23T03:08:02;97713.25;;;14.65;100.00
54910;BME280;63189;51.240;9.964;2023-05-23T03:10:29;97711.78;;;14.59;100.00
54910;BME280;63189;51.240;9.964;2023-05-23T03:12:54;97703.47;;;14.51;100.00
54910;BME280;63189;51.240;9.964;2023-05-23T03:15:19;97703.66;;;14.47;100.00
54910;BME280;63189;51.240;9.964;2023-05-23T03:17:45;97702.94;;;14.43;100.00
54910;BME280;63189;51.240;9.964;2023-05-23T03:20:10;97704.25;;;14.34;100.00
54910;BME280;63189;51.240;9.964;2023-05-23T03:22:36;97702.72;;;14.30;100.00
54910;BME280;63189;51.240;9.964;2023-05-23T03:25:01;97708.50;;;14.20;100.00
54910;BME280;63189;51.240;9.964;2023-05-23T03:27:27;97710.56;;;14.13;100.00
54910;BME280;63189;51.240;9.964;2023-05-23T03:29:52;97717.72;;;14.09;100.00
54910;BME280;63189;51.240;9.964;2023-05-23T03:32:17;97717.09;;;14.04;100.00
54910;BME280;63189;51.240;9.964;2023-05-23T03:34:43;97715.53;;;14.00;100.00
54910;BME280;63189;51.240;9.964;2023-05-23T03:37:08;97727.88;;;13.98;100.00
54910;BME280;63189;51.240;9.964;2023-05-23T03:39:33;97722.72;;;13.97;100.00
54910;BME280;63189;51.240;9.964;2023-05-23T03:41:59;97727.88;;;13.98;100.00
54910;BME280;63189;51.240;9.964;2023-05-23T03:44:24;97727.88;;;13.98;100.00
54910;BME280;63189;51.240;9.964;2023-05-23T03:46:49;97724.47;;;13.96;100.00
54910;BME280;63189;51.240;9.964;2023-05-23T03:49:15;97735.81;;;13.97;100.00
54910;BME280;63189;51.240;9.964;2023-05-23T03:51:40;97729.69;;;13.96;100.00
54910;BME280;63189;51.240;9.964;2023-05-23T03:54:05;97728.00;;;13.95;100.00
54910;BME280;63189;51.240;9.964;2023-05-23T03:56:30;97731.44;;;13.97;100.00
54910;BME280;63189;51.240;9.964;2023-05-23T03:58:56;97728.09;;;13.94;100.00
54910;BME280;63189;51.240;9.964;2023-05-23T04:01:21;97737.63;;;13.95;100.00
54910;BME280;63189;51.240;9.964;2023-05-23T04:03:47;97736.72;;;13.96;100.00
54910;BME280;63189;51.240;9.964;2023-05-23T04:06:13;97732.41;;;13.95;100.00
54910;BME280;63189;51.240;9.964;2023-05-23T04:08:38;97733.25;;;13.95;100.00
54910;BME280;63189;51.240;9.964;2023-05-23T04:11:06;97736.50;;;14.00;100.00
54910;BME280;63189;51.240;9.964;2023-05-23T04:13:31;97740.13;;;13.98;100.00
54910;BME280;63189;51.240;9.964;2023-05-23T04:15:59;97740.06;;;13.99;100.00
54910;BME280;63189;51.240;9.964;2023-05-23T04:18:25;97735.81;;;13.97;100.00
54910;BME280;63189;51.240;9.964;2023-05-23T04:20:51;97738.44;;;13.97;100.00
54910;BME280;63189;51.240;9.964;2023-05-23T04:23:16;97737.72;;;13.93;100.00
54910;BME280;63189;51.240;9.964;2023-05-23T04:25:41;97740.50;;;13.90;100.00
54910;BME280;63189;51.240;9.964;2023-05-23T04:28:07;97741.50;;;13.88;100.00
54910;BME280;63189;51.240;9.964;2023-05-23T04:30:34;97751.31;;;13.82;100.00
54910;BME280;63189;51.240;9.964;2023-05-23T04:33:00;97747.25;;;13.77;100.00
54910;BME280;63189;51.240;9.964;2023-05-23T04:35:25;97750.06;;;13.72;100.00
54910;BME280;63189;51.240;9.964;2023-05-23T04:37:54;97747.94;;;13.62;100.00
54910;BME280;63189;51.240;9.964;2023-05-23T04:40:21;97749.00;;;13.57;100.00
54910;BME280;63189;51.240;9.964;2023-05-23T04:42:47;97754.50;;;13.51;100.00
54910;BME280;63189;51.240;9.964;2023-05-23T04:45:14;97751.25;;;13.46;100.00
54910;BME280;63189;51.240;9.964;2023-05-23T04:47:39;97753.22;;;13.41;100.00
54910;BME280;63189;51.240;9.964;2023-05-23T04:50:06;97751.69;;;13.37;100.00
54910;BME280;63189;51.240;9.964;2023-05-23T04:52:31;97751.00;;;13.32;100.00
54910;BME280;63189;51.240;9.964;2023-05-23T04:54:58;97759.78;;;13.31;100.00
54910;BME280;63189;51.240;9.964;2023-05-23T04:57:24;97762.47;;;13.29;100.00
54910;BME280;63189;51.240;9.964;2023-05-23T04:59:49;97761.50;;;13.32;100.00
54910;BME280;63189;51.240;9.964;2023-05-23T05:02:14;97760.72;;;13.30;100.00
54910;BME280;63189;51.240;9.964;2023-05-23T05:04:40;97766.88;;;13.29;100.00
54910;BME280;63189;51.240;9.964;2023-05-23T05:07:05;97770.25;;;13.31;100.00
54910;BME280;63189;51.240;9.964;2023-05-23T05:09:30;97773.03;;;13.28;100.00
54910;BME280;63189;51.240;9.964;2023-05-23T05:11:57;97776.41;;;13.30;100.00
54910;BME280;63189;51.240;9.964;2023-05-23T05:14:22;97785.06;;;13.32;100.00
54910;BME280;63189;51.240;9.964;2023-05-23T05:16:47;97783.25;;;13.34;100.00
54910;BME280;63189;51.240;9.964;2023-05-23T05:19:14;97792.72;;;13.37;100.00
54910;BME280;63189;51.240;9.964;2023-05-23T05:21:40;97789.88;;;13.41;100.00
54910;BME280;63189;51.240;9.964;2023-05-23T05:24:05;97783.72;;;13.42;100.00
54910;BME280;63189;51.240;9.964;2023-05-23T05:26:34;97784.56;;;13.43;100.00
54910;BME280;63189;51.240;9.964;2023-05-23T05:28:59;97784.53;;;13.44;100.00
54910;BME280;63189;51.240;9.964;2023-05-23T05:31:24;97788.97;;;13.42;100.00
54910;BME280;63189;51.240;9.964;2023-05-23T05:33:50;97784.94;;;13.35;100.00
54910;BME280;63189;51.240;9.964;2023-05-23T05:36:16;97794.56;;;13.35;100.00
54910;BME280;63189;51.240;9.964;2023-05-23T05:38:41;97781.81;;;13.27;100.00
54910;BME280;63189;51.240;9.964;2023-05-23T05:41:06;97782.50;;;13.31;100.00
54910;BME280;63189;51.240;9.964;2023-05-23T05:43:32;97784.28;;;13.30;100.00
54910;BME280;63189;51.240;9.964;2023-05-23T05:45:57;97783.25;;;13.34;100.00
54910;BME280;63189;51.240;9.964;2023-05-23T05:48:22;97784.66;;;13.41;100.00
54910;BME280;63189;51.240;9.964;2023-05-23T05:50:47;97784.47;;;13.46;100.00
54910;BME280;63189;51.240;9.964;2023-05-23T05:53:13;97772.06;;;13.49;100.00
54910;BME280;63189;51.240;9.964;2023-05-23T05:55:38;97767.19;;;13.61;100.00
54910;BME280;63189;51.240;9.964;2023-05-23T05:58:03;97777.34;;;13.87;100.00
54910;BME280;63189;51.240;9.964;2023-05-23T06:00:29;97768.41;;;13.91;100.00
54910;BME280;63189;51.240;9.964;2023-05-23T06:02:55;97762.88;;;13.97;100.00
54910;BME280;63189;51.240;9.964;2023-05-23T06:05:21;97770.66;;;13.99;100.00
54910;BME280;63189;51.240;9.964;2023-05-23T06:07:48;97775.75;;;14.02;100.00
54910;BME280;63189;51.240;9.964;2023-05-23T06:10:14;97781.28;;;13.96;100.00
54910;BME280;63189;51.240;9.964;2023-05-23T06:12:39;97773.78;;;13.88;100.00
54910;BME280;63189;51.240;9.964;2023-05-23T06:15:05;97774.91;;;13.82;100.00
54910;BME280;63189;51.240;9.964;2023-05-23T06:17:31;97780.22;;;13.81;100.00
54910;BME280;63189;51.240;9.964;2023-05-23T06:19:56;97767.28;;;13.78;100.00
54910;BME280;63189;51.240;9.964;2023-05-23T06:22:21;97781.34;;;13.75;100.00
54910;BME280;63189;51.240;9.964;2023-05-23T06:24:47;97768.31;;;13.74;100.00
54910;BME280;63189;51.240;9.964;2023-05-23T06:27:12;97774.06;;;14.01;100.00
54910;BME280;63189;51.240;9.964;2023-05-23T06:29:38;97774.91;;;14.20;100.00
54910;BME280;63189;51.240;9.964;2023-05-23T06:32:04;97786.25;;;14.38;100.00
54910;BME280;63189;51.240;9.964;2023-05-23T06:34:29;97773.59;;;14.65;100.00
54910;BME280;63189;51.240;9.964;2023-05-23T06:36:54;97769.91;;;14.86;100.00
54910;BME280;63189;51.240;9.964;2023-05-23T06:39:20;97768.19;;;14.85;100.00
54910;BME280;63189;51.240;9.964;2023-05-23T06:41:46;97775.47;;;14.80;100.00
54910;BME280;63189;51.240;9.964;2023-05-23T06:44:11;97785.72;;;14.67;100.00
54910;BME280;63189;51.240;9.964;2023-05-23T06:46:36;97782.75;;;14.56;100.00
54910;BME280;63189;51.240;9.964;2023-05-23T06:49:01;97797.97;;;14.50;100.00
54910;BME280;63189;51.240;9.964;2023-05-23T06:51:27;97805.25;;;14.43;100.00
54910;BME280;63189;51.240;9.964;2023-05-23T06:53:52;97798.75;;;14.33;100.00
54910;BME280;63189;51.240;9.964;2023-05-23T06:56:17;97800.97;;;14.23;100.00
54910;BME280;63189;51.240;9.964;2023-05-23T06:58:43;97796.88;;;14.18;100.00
54910;BME280;63189;51.240;9.964;2023-05-23T07:01:08;97794.38;;;14.14;100.00
54910;BME280;63189;51.240;9.964;2023-05-23T07:03:35;97794.44;;;14.13;100.00
54910;BME280;63189;51.240;9.964;2023-05-23T07:06:02;97788.19;;;14.15;100.00
54910;BME280;63189;51.240;9.964;2023-05-23T07:08:28;97782.97;;;14.15;100.00
54910;BME280;63189;51.240;9.964;2023-05-23T07:10:53;97797.31;;;14.08;100.00
54910;BME280;63189;51.240;9.964;2023-05-23T07:13:18;97788.59;;;14.08;100.00
54910;BME280;63189;51.240;9.964;2023-05-23T07:15:43;97790.38;;;14.07;100.00
54910;BME280;63189;51.240;9.964;2023-05-23T07:18:09;97782.69;;;14.03;100.00
54910;BME280;63189;51.240;9.964;2023-05-23T07:20:35;97793.34;;;14.00;100.00
54910;BME280;63189;51.240;9.964;2023-05-23T07:23:00;97795.22;;;13.96;100.00
54910;BME280;63189;51.240;9.964;2023-05-23T07:25:26;97803.25;;;13.93;100.00
54910;BME280;63189;51.240;9.964;2023-05-23T07:27:52;97795.53;;;13.90;100.00
54910;BME280;63189;51.240;9.964;2023-05-23T07:30:19;97793.84;;;13.89;100.00
54910;BME280;63189;51.240;9.964;2023-05-23T07:32:45;97798.31;;;13.87;100.00
54910;BME280;63189;51.240;9.964;2023-05-23T07:35:12;97799.22;;;13.86;100.00
54910;BME280;63189;51.240;9.964;2023-05-23T07:37:37;97792.56;;;13.79;100.00
54910;BME280;63189;51.240;9.964;2023-05-23T07:40:04;97798.41;;;13.84;100.00
54910;BME280;63189;51.240;9.964;2023-05-23T07:42:29;97796.59;;;13.86;100.00
54910;BME280;63189;51.240;9.964;2023-05-23T07:44:54;97794.59;;;13.91;100.00
54910;BME280;63189;51.240;9.964;2023-05-23T07:47:20;97803.31;;;13.92;100.00
54910;BME280;63189;51.240;9.964;2023-05-23T07:49:45;97811.84;;;13.97;100.00
54910;BME280;63189;51.240;9.964;2023-05-23T07:52:11;97810.09;;;13.96;100.00
54910;BME280;63189;51.240;9.964;2023-05-23T07:54:37;97809.91;;;14.00;100.00
54910;BME280;63189;51.240;9.964;2023-05-23T07:57:02;97812.47;;;14.02;100.00
54910;BME280;63189;51.240;9.964;2023-05-23T07:59:28;97811.59;;;14.01;100.00
54910;BME280;63189;51.240;9.964;2023-05-23T08:01:54;97808.22;;;13.99;100.00
54910;BME280;63189;51.240;9.964;2023-05-23T08:04:19;97817.78;;;14.00;100.00
54910;BME280;63189;51.240;9.964;2023-05-23T08:06:45;97804.81;;;13.97;100.00
54910;BME280;63189;51.240;9.964;2023-05-23T08:09:11;97819.81;;;13.94;100.00
54910;BME280;63189;51.240;9.964;2023-05-23T08:11:37;97812.03;;;13.92;100.00
54910;BME280;63189;51.240;9.964;2023-05-23T08:14:02;97806.94;;;13.89;100.00
54910;BME280;63189;51.240;9.964;2023-05-23T08:16:27;97808.63;;;13.90;100.00
54910;BME280;63189;51.240;9.964;2023-05-23T08:18:53;97829.59;;;13.90;100.00
54910;BME280;63189;51.240;9.964;2023-05-23T08:21:18;97821.66;;;13.92;100.00
54910;BME280;63189;51.240;9.964;2023-05-23T08:23:43;97824.56;;;13.85;100.00
54910;BME280;63189;51.240;9.964;2023-05-23T08:26:08;97825.78;;;13.78;100.00
54910;BME280;63189;51.240;9.964;2023-05-23T08:28:34;97826.63;;;13.79;100.00
54910;BME280;63189;51.240;9.964;2023-05-23T08:30:59;97833.72;;;13.77;100.00
54910;BME280;63189;51.240;9.964;2023-05-23T08:33:25;97828.59;;;13.74;100.00
54910;BME280;63189;51.240;9.964;2023-05-23T08:35:50;97823.34;;;13.74;100.00
54910;BME280;63189;51.240;9.964;2023-05-23T08:38:16;97829.31;;;13.77;100.00
54910;BME280;63189;51.240;9.964;2023-05-23T08:40:48;97829.16;;;13.80;100.00
54910;BME280;63189;51.240;9.964;2023-05-23T08:43:14;97836.03;;;13.83;100.00
54910;BME280;63189;51.240;9.964;2023-05-23T08:45:40;97837.63;;;13.87;100.00
54910;BME280;63189;51.240;9.964;2023-05-23T08:48:07;97842.72;;;13.90;100.00
54910;BME280;63189;51.240;9.964;2023-05-23T08:50:36;97840.09;;;13.90;100.00
54910;BME280;63189;51.240;9.964;2023-05-23T08:53:04;97844.41;;;13.91;100.00
54910;BME280;63189;51.240;9.964;2023-05-23T08:55:32;97845.09;;;13.95;100.00
54910;BME280;63189;51.240;9.964;2023-05-23T08:57:58;97845.19;;;13.93;100.00
54910;BME280;63189;51.240;9.964;2023-05-23T09:00:25;97852.00;;;13.97;100.00
54910;BME280;63189;51.240;9.964;2023-05-23T09:02:51;97854.31;;;14.03;100.00
54910;BME280;63189;51.240;9.964;2023-05-23T09:05:17;97854.25;;;14.05;100.00
54910;BME280;63189;51.240;9.964;2023-05-23T09:07:45;97844.63;;;14.05;100.00
54910;BME280;63189;51.240;9.964;2023-05-23T09:10:14;97848.16;;;14.04;100.00
54910;BME280;63189;51.240;9.964;2023-05-23T09:12:41;97859.38;;;14.08;100.00
54910;BME280;63189;51.240;9.964;2023-05-23T09:15:08;97866.25;;;14.10;100.00
54910;BME280;63189;51.240;9.964;2023-05-23T09:17:35;97862.91;;;14.07;100.00
54910;BME280;63189;51.240;9.964;2023-05-23T09:20:01;97864.03;;;14.01;100.00
54910;BME280;63189;51.240;9.964;2023-05-23T09:22:27;97857.09;;;14.00;100.00
54910;BME280;63189;51.240;9.964;2023-05-23T09:24:54;97861.41;;;14.01;100.00
54910;BME280;63189;51.240;9.964;2023-05-23T09:27:20;97865.53;;;14.07;100.00
54910;BME280;63189;51.240;9.964;2023-05-23T09:29:45;97866.50;;;14.04;100.00
54910;BME280;63189;51.240;9.964;2023-05-23T09:32:16;97863.47;;;14.13;100.00
54910;BME280;63189;51.240;9.964;2023-05-23T09:34:55;97868.44;;;14.20;100.00
54910;BME280;63189;51.240;9.964;2023-05-23T09:37:21;97870.06;;;14.22;100.00
54910;BME280;63189;51.240;9.964;2023-05-23T09:39:49;97869.06;;;14.25;100.00
54910;BME280;63189;51.240;9.964;2023-05-23T09:42:20;97869.13;;;14.23;100.00
54910;BME280;63189;51.240;9.964;2023-05-23T09:44:46;97870.84;;;14.24;100.00
54910;BME280;63189;51.240;9.964;2023-05-23T09:47:11;97859.91;;;14.14;100.00
54910;BME280;63189;51.240;9.964;2023-05-23T09:49:40;97885.50;;;14.09;100.00
54910;BME280;63189;51.240;9.964;2023-05-23T09:52:05;97884.22;;;13.99;100.00
54910;BME280;63189;51.240;9.964;2023-05-23T09:54:31;97895.75;;;13.95;100.00
54910;BME280;63189;51.240;9.964;2023-05-23T09:56:58;97894.97;;;13.93;100.00
54910;BME280;63189;51.240;9.964;2023-05-23T09:59:27;97899.66;;;13.86;100.00
54910;BME280;63189;51.240;9.964;2023-05-23T10:01:55;97895.19;;;13.89;100.00
54910;BME280;63189;51.240;9.964;2023-05-23T10:04:21;97896.19;;;13.86;100.00
54910;BME280;63189;51.240;9.964;2023-05-23T10:06:50;97893.56;;;13.86;100.00
54910;BME280;63189;51.240;9.964;2023-05-23T10:09:19;97898.75;;;13.88;100.00
54910;BME280;63189;51.240;9.964;2023-05-23T10:14:44;97897.44;;;13.96;100.00
54910;BME280;63189;51.240;9.964;2023-05-23T10:17:30;97911.00;;;14.06;100.00
54910;BME280;63189;51.240;9.964;2023-05-23T10:20:00;97916.13;;;14.09;100.00
54910;BME280;63189;51.240;9.964;2023-05-23T10:22:32;97913.00;;;14.01;100.00
54910;BME280;63189;51.240;9.964;2023-05-23T10:24:59;97923.81;;;13.93;100.00
54910;BME280;63189;51.240;9.964;2023-05-23T10:27:24;97928.53;;;13.85;100.00
54910;BME280;63189;51.240;9.964;2023-05-23T10:29:50;97926.59;;;13.70;100.00
54910;BME280;63189;51.240;9.964;2023-05-23T10:32:16;97924.59;;;13.56;100.00
54910;BME280;63189;51.240;9.964;2023-05-23T10:37:44;97933.84;;;13.43;100.00
54910;BME280;63189;51.240;9.964;2023-05-23T10:40:23;97937.75;;;13.34;100.00
54910;BME280;63189;51.240;9.964;2023-05-23T10:43:11;97954.75;;;13.24;100.00
54910;BME280;63189;51.240;9.964;2023-05-23T10:45:41;97944.38;;;13.21;100.00
54910;BME280;63189;51.240;9.964;2023-05-23T10:48:22;97954.06;;;13.19;100.00
54910;BME280;63189;51.240;9.964;2023-05-23T10:51:09;97955.25;;;13.10;100.00
54910;BME280;63189;51.240;9.964;2023-05-23T10:53:37;97965.13;;;13.04;100.00
54910;BME280;63189;51.240;9.964;2023-05-23T10:56:07;97967.34;;;12.92;100.00
54910;BME280;63189;51.240;9.964;2023-05-23T10:58:34;97984.34;;;12.81;100.00
54910;BME280;63189;51.240;9.964;2023-05-23T11:01:06;97980.69;;;12.63;100.00
54910;BME280;63189;51.240;9.964;2023-05-23T11:11:54;97990.28;;;12.39;100.00
54910;BME280;63189;51.240;9.964;2023-05-23T11:19:36;98005.44;;;12.31;100.00
54910;BME280;63189;51.240;9.964;2023-05-23T11:22:02;98005.38;;;12.32;100.00
54910;BME280;63189;51.240;9.964;2023-05-23T11:24:52;98004.59;;;12.30;100.00
54910;BME280;63189;51.240;9.964;2023-05-23T11:27:30;97996.78;;;12.29;100.00
54910;BME280;63189;51.240;9.964;2023-05-23T11:30:09;98000.28;;;12.28;100.00
54910;BME280;63189;51.240;9.964;2023-05-23T11:32:35;98006.44;;;12.27;100.00
54910;BME280;63189;51.240;9.964;2023-05-23T11:35:02;97998.59;;;12.27;100.00
54910;BME280;63189;51.240;9.964;2023-05-23T11:37:29;97979.44;;;12.26;100.00
54910;BME280;63189;51.240;9.964;2023-05-23T11:39:55;98004.53;;;12.32;100.00
54910;BME280;63189;51.240;9.964;2023-05-23T11:42:21;98006.22;;;12.33;100.00
54910;BME280;63189;51.240;9.964;2023-05-23T11:44:50;98002.91;;;12.28;100.00
54910;BME280;63189;51.240;9.964;2023-05-23T11:47:17;97996.44;;;12.38;100.00
54910;BME280;63189;51.240;9.964;2023-05-23T11:49:44;98007.91;;;12.57;100.00
54910;BME280;63189;51.240;9.964;2023-05-23T11:52:13;98005.94;;;12.64;100.00
54910;BME280;63189;51.240;9.964;2023-05-23T11:54:44;98000.44;;;12.70;100.00
54910;BME280;63189;51.240;9.964;2023-05-23T11:57:12;98015.06;;;12.76;100.00
54910;BME280;63189;51.240;9.964;2023-05-23T11:59:38;98008.00;;;12.78;100.00
54910;BME280;63189;51.240;9.964;2023-05-23T12:02:04;98011.47;;;12.78;100.00
54910;BME280;63189;51.240;9.964;2023-05-23T12:04:30;98019.22;;;12.81;100.00
54910;BME280;63189;51.240;9.964;2023-05-23T12:06:55;98014.09;;;12.78;100.00
54910;BME280;63189;51.240;9.964;2023-05-23T12:09:21;98022.34;;;12.67;100.00
54910;BME280;63189;51.240;9.964;2023-05-23T12:11:47;98026.94;;;12.61;100.00
54910;BME280;63189;51.240;9.964;2023-05-23T12:14:15;98027.94;;;12.58;100.00
54910;BME280;63189;51.240;9.964;2023-05-23T12:16:45;98034.34;;;12.50;100.00
54910;BME280;63189;51.240;9.964;2023-05-23T12:19:11;98040.72;;;12.42;100.00
54910;BME280;63189;51.240;9.964;2023-05-23T12:24:20;98041.97;;;12.32;100.00
54910;BME280;63189;51.240;9.964;2023-05-23T12:27:06;98049.03;;;12.30;100.00
54910;BME280;63189;51.240;9.964;2023-05-23T12:29:34;98041.56;;;12.20;100.00
54910;BME280;63189;51.240;9.964;2023-05-23T12:32:02;98041.78;;;12.13;100.00
54910;BME280;63189;51.240;9.964;2023-05-23T12:34:28;98044.44;;;12.12;100.00
54910;BME280;63189;51.240;9.964;2023-05-23T12:36:57;98058.38;;;12.12;100.00
54910;BME280;63189;51.240;9.964;2023-05-23T12:39:25;98049.78;;;12.09;100.00
54910;BME280;63189;51.240;9.964;2023-05-23T12:41:54;98042.94;;;12.05;100.00
54910;BME280;63189;51.240;9.964;2023-05-23T12:44:23;98055.94;;;12.06;100.00
54910;BME280;63189;51.240;9.964;2023-05-23T12:46:48;98058.41;;;12.11;100.00
54910;BME280;63189;51.240;9.964;2023-05-23T12:49:24;98053.97;;;12.13;100.00
54910;BME280;63189;51.240;9.964;2023-05-23T12:51:53;98065.19;;;12.17;100.00
54910;BME280;63189;51.240;9.964;2023-05-23T12:54:18;98068.03;;;12.10;100.00
54910;BME280;63189;51.240;9.964;2023-05-23T12:56:43;98063.66;;;12.11;100.00
54910;BME280;63189;51.240;9.964;2023-05-23T12:59:09;98077.56;;;12.11;100.00
54910;BME280;63189;51.240;9.964;2023-05-23T13:01:36;98076.91;;;12.05;100.00
54910;BME280;63189;51.240;9.964;2023-05-23T13:04:02;98080.31;;;12.07;100.00
54910;BME280;63189;51.240;9.964;2023-05-23T13:06:29;98068.34;;;12.01;100.00
54910;BME280;63189;51.240;9.964;2023-05-23T13:08:54;98076.44;;;11.94;100.00
54910;BME280;63189;51.240;9.964;2023-05-23T13:11:20;98073.22;;;11.85;100.00
54910;BME280;63189;51.240;9.964;2023-05-23T13:13:47;98069.00;;;11.81;100.00